createdAt,value
2023-05-13T00:02:55.596Z,35.00
2023-05-13T00:08:02.113Z,35.17
2023-05-13T00:13:05.229Z,35.58
2023-05-13T00:18:09.595Z,35.55
2023-05-13T00:23:12.603Z,35.03
2023-05-13T00:28:15.923Z,35.78
2023-05-13T00:33:20.227Z,35.78
2023-05-13T00:38:23.142Z,35.65
2023-05-13T00:43:26.174Z,35.67
2023-05-13T00:48:30.741Z,35.38
2023-05-13T00:53:34.897Z,35.72
2023-05-13T00:58:37.810Z,35.58
2023-05-13T01:03:50.777Z,35.60
2023-05-13T01:09:02.064Z,34.88
2023-05-13T01:14:16.078Z,35.22
2023-05-13T01:19:32.718Z,35.28
2023-05-13T01:24:37.364Z,35.05
2023-05-13T01:29:41.844Z,35.15
2023-05-13T01:34:46.238Z,35.25
2023-05-13T01:39:52.548Z,35.13
2023-05-13T01:44:55.636Z,34.97
2023-05-13T01:49:59.118Z,34.67
2023-05-13T01:55:03.521Z,34.67
2023-05-13T02:00:09.107Z,35.15
2023-05-13T02:05:17.391Z,35.33
2023-05-13T02:10:22.704Z,35.78
2023-05-13T02:15:25.954Z,35.22
2023-05-13T02:20:28.865Z,35.75
2023-05-13T02:25:33.177Z,35.35
2023-05-13T02:30:36.140Z,35.00
2023-05-13T02:35:39.178Z,34.85
2023-05-13T02:40:44.233Z,34.70
2023-05-13T02:45:47.789Z,35.88
2023-05-13T02:50:51.823Z,35.40
2023-05-13T02:55:57.131Z,35.58
2023-05-13T03:01:02.474Z,35.30
2023-05-13T03:06:06.216Z,35.10
2023-05-13T03:11:10.606Z,35.20
2023-05-13T03:16:15.430Z,35.13
2023-05-13T03:21:18.534Z,35.13
2023-05-13T03:26:23.071Z,35.17
2023-05-13T03:31:26.645Z,35.03
2023-05-13T03:36:29.910Z,36.67
2023-05-13T03:41:34.958Z,35.08
2023-05-13T03:46:39.016Z,34.33
2023-05-13T03:51:42.117Z,35.15
2023-05-13T03:56:46.582Z,36.30
2023-05-13T04:01:49.586Z,34.90
2023-05-13T04:06:52.571Z,34.95
2023-05-13T04:11:56.806Z,34.92
2023-05-13T04:16:59.810Z,35.22
2023-05-13T04:22:02.724Z,34.92
2023-05-13T04:27:07.430Z,34.60
2023-05-13T04:32:10.411Z,34.70
2023-05-13T04:37:13.682Z,35.13
2023-05-13T04:42:18.107Z,34.47
2023-05-13T04:47:21.220Z,34.90
2023-05-13T04:52:24.263Z,34.80
2023-05-13T04:57:33.940Z,34.85
2023-05-13T05:02:37.157Z,34.75
2023-05-13T05:07:40.674Z,35.78
2023-05-13T05:12:45.768Z,34.80
2023-05-13T05:17:49.196Z,36.13
2023-05-13T05:22:52.775Z,34.80
2023-05-13T05:28:00.199Z,35.10
2023-05-13T05:33:03.502Z,35.75
2023-05-13T05:38:07.812Z,35.47
2023-05-13T05:43:13.308Z,35.13
2023-05-13T05:48:16.804Z,35.28
2023-05-13T05:53:19.864Z,35.45
2023-05-13T05:58:26.857Z,36.00
2023-05-13T06:03:30.137Z,35.15
2023-05-13T06:08:34.306Z,35.20
2023-05-13T06:13:50.017Z,35.90
2023-05-13T06:18:53.055Z,35.75
2023-05-13T06:23:56.432Z,35.97
2023-05-13T06:29:00.756Z,35.83
2023-05-13T06:34:03.844Z,35.55
2023-05-13T06:39:07.218Z,35.40
2023-05-13T06:44:13.971Z,34.90
2023-05-13T06:49:21.566Z,35.85
2023-05-13T06:54:26.398Z,35.88
2023-05-13T06:59:38.707Z,35.35
2023-05-13T07:04:41.624Z,35.38
2023-05-13T07:09:44.558Z,35.88
2023-05-13T07:14:48.929Z,35.83
2023-05-13T07:19:51.862Z,35.88
2023-05-13T07:24:54.967Z,35.92
2023-05-13T07:29:59.418Z,35.30
2023-05-13T07:35:02.441Z,36.53
2023-05-13T07:40:06.578Z,35.28
2023-05-13T07:45:12.049Z,35.63
2023-05-13T07:50:14.970Z,35.70
2023-05-13T07:55:18.370Z,35.15
2023-05-13T08:00:22.802Z,35.42
2023-05-13T08:05:25.809Z,35.85
2023-05-13T08:10:28.784Z,35.40
2023-05-13T08:15:33.560Z,35.58
2023-05-13T08:20:36.640Z,35.63
2023-05-13T08:25:39.624Z,35.88
2023-05-13T08:30:44.369Z,35.35
2023-05-13T08:35:48.031Z,35.75
2023-05-13T08:40:51.626Z,35.42
2023-05-13T08:45:57.617Z,35.72
2023-05-13T08:51:02.004Z,35.17
2023-05-13T08:56:07.176Z,35.53
2023-05-13T09:01:11.839Z,35.70
2023-05-13T09:06:14.886Z,35.45
2023-05-13T09:11:18.217Z,35.50
2023-05-13T09:16:24.172Z,36.00
2023-05-13T09:21:28.162Z,35.58
2023-05-13T09:26:31.726Z,35.47
2023-05-13T09:31:36.690Z,35.67
2023-05-13T09:36:39.790Z,35.92
2023-05-13T09:41:43.101Z,35.80
2023-05-13T09:46:47.473Z,36.15
2023-05-13T09:51:50.487Z,35.63
2023-05-13T09:56:59.893Z,35.90
2023-05-13T10:02:07.358Z,36.22
2023-05-13T10:07:12.562Z,36.20
2023-05-13T10:12:16.060Z,36.10
2023-05-13T10:17:21.714Z,36.08
2023-05-13T10:22:29.542Z,36.33
2023-05-13T10:27:34.295Z,36.15
2023-05-13T10:32:40.101Z,37.15
2023-05-13T10:38:06.165Z,36.28
2023-05-13T10:43:18.148Z,35.58
2023-05-13T10:48:24.039Z,36.28
2023-05-13T10:53:30.007Z,35.83
2023-05-13T10:58:35.045Z,36.00
2023-05-13T11:03:41.685Z,35.38
2023-05-13T11:08:46.164Z,36.00
2023-05-13T11:13:51.377Z,36.03
2023-05-13T11:18:55.938Z,36.13
2023-05-13T11:24:01.691Z,35.80
2023-05-13T11:29:06.656Z,35.95
2023-05-13T11:34:16.047Z,35.80
2023-05-13T11:39:20.318Z,35.92
2023-05-13T11:44:24.555Z,35.72
2023-05-13T11:49:39.784Z,35.85
2023-05-13T11:54:49.258Z,36.35
2023-05-13T11:59:53.956Z,36.00
2023-05-13T12:05:01.801Z,35.75
2023-05-13T12:10:06.499Z,35.85
2023-05-13T12:15:11.974Z,36.35
2023-05-13T12:20:17.643Z,36.03
2023-05-13T12:25:41.441Z,35.65
2023-05-13T12:30:45.625Z,36.28
2023-05-13T12:35:52.063Z,35.92
2023-05-13T12:40:55.135Z,36.60
2023-05-13T12:45:58.163Z,35.92
2023-05-13T12:51:02.543Z,36.10
2023-05-13T12:56:06.049Z,35.72
2023-05-13T13:01:08.995Z,36.13
2023-05-13T13:06:13.408Z,36.42
2023-05-13T13:11:18.979Z,35.85
2023-05-13T13:16:22.110Z,36.15
2023-05-13T13:21:27.072Z,35.88
2023-05-13T13:26:30.126Z,36.30
2023-05-13T13:31:33.223Z,36.45
2023-05-13T13:36:37.636Z,36.58
2023-05-13T13:41:40.638Z,36.45
2023-05-13T13:46:43.662Z,36.53
2023-05-13T13:51:47.929Z,36.67
2023-05-13T13:56:51.292Z,36.70
2023-05-13T14:01:54.435Z,36.92
2023-05-13T14:06:58.873Z,37.38
2023-05-13T14:12:02.233Z,36.17
2023-05-13T14:17:05.661Z,36.78
2023-05-13T14:22:10.238Z,37.20
2023-05-13T14:27:18.521Z,36.22
2023-05-13T14:32:21.972Z,36.80
2023-05-13T14:37:27.220Z,36.88
2023-05-13T14:42:30.978Z,37.08
2023-05-13T14:47:37.738Z,37.10
2023-05-13T14:52:42.695Z,37.15
2023-05-13T14:57:49.968Z,38.38
2023-05-13T15:02:53.564Z,36.83
2023-05-13T15:07:59.627Z,36.78
2023-05-13T15:13:03.045Z,37.30
2023-05-13T15:18:07.168Z,37.15
2023-05-13T15:23:11.753Z,36.72
2023-05-13T15:28:15.017Z,36.83
2023-05-13T15:33:18.112Z,37.58
2023-05-13T15:38:23.104Z,37.35
2023-05-13T15:43:26.112Z,36.95
2023-05-13T15:48:30.336Z,37.15
2023-05-13T15:53:34.688Z,36.38
2023-05-13T15:58:37.699Z,37.78
2023-05-13T16:04:12.042Z,37.15
2023-05-13T16:09:16.915Z,37.13
2023-05-13T16:14:20.058Z,36.47
2023-05-13T16:19:23.389Z,37.45
2023-05-13T16:24:27.862Z,37.55
2023-05-13T16:29:30.845Z,36.83
2023-05-13T16:34:33.807Z,37.55
2023-05-13T16:39:38.927Z,38.05
2023-05-13T16:44:42.245Z,36.92
2023-05-13T16:49:45.560Z,37.13
2023-05-13T16:54:50.315Z,36.92
2023-05-13T16:59:56.496Z,37.05
2023-05-13T17:04:59.706Z,38.00
2023-05-13T17:10:05.994Z,37.08
2023-05-13T17:15:09.683Z,37.38
2023-05-13T17:20:13.872Z,37.15
2023-05-13T17:25:18.493Z,37.63
2023-05-13T17:30:23.017Z,37.63
2023-05-13T17:35:26.270Z,37.30
2023-05-13T17:40:30.737Z,38.45
2023-05-13T17:45:35.603Z,38.10
2023-05-13T17:50:38.741Z,38.85
2023-05-13T17:55:43.005Z,37.85
2023-05-13T18:00:54.932Z,38.00
2023-05-13T18:05:58.124Z,37.60
2023-05-13T18:11:18.584Z,38.03
2023-05-13T18:16:21.510Z,37.63
2023-05-13T18:21:24.694Z,37.88
2023-05-13T18:26:29.156Z,37.38
2023-05-13T18:31:45.326Z,37.35
2023-05-13T18:36:57.574Z,37.53
2023-05-13T18:42:03.043Z,37.35
2023-05-13T18:47:12.595Z,37.78
2023-05-13T18:52:27.134Z,37.13
2023-05-13T18:57:31.845Z,37.50
2023-05-13T19:02:36.644Z,37.55
2023-05-13T19:08:08.146Z,37.88
2023-05-13T19:13:15.077Z,37.75
2023-05-13T19:18:29.150Z,37.60
2023-05-13T19:23:42.608Z,36.65
2023-05-13T19:28:47.217Z,37.10
2023-05-13T19:33:51.371Z,36.95
2023-05-13T19:38:54.683Z,37.90
2023-05-13T19:43:59.194Z,41.83
2023-05-13T19:49:03.538Z,38.78
2023-05-13T19:54:24.861Z,38.05
2023-05-13T19:59:39.489Z,37.60
2023-05-13T20:04:43.361Z,37.90
2023-05-13T20:09:50.071Z,37.33
2023-05-13T20:14:56.144Z,37.45
2023-05-13T20:19:59.371Z,36.80
2023-05-13T20:25:02.854Z,37.30
2023-05-13T20:30:08.569Z,37.67
2023-05-13T20:35:11.559Z,37.42
2023-05-13T20:40:14.570Z,38.05
2023-05-13T20:45:19.213Z,37.88
2023-05-13T20:50:22.303Z,37.70
2023-05-13T20:55:25.408Z,37.75
2023-05-13T21:00:29.624Z,37.55
2023-05-13T21:05:32.496Z,37.50
2023-05-13T21:10:35.432Z,37.45
2023-05-13T21:15:39.779Z,37.90
2023-05-13T21:20:42.704Z,37.30
2023-05-13T21:25:59.956Z,38.03
2023-05-13T21:31:04.490Z,37.30
2023-05-13T21:36:07.676Z,37.50
2023-05-13T21:41:10.581Z,37.08
2023-05-13T21:46:14.809Z,37.78
2023-05-13T21:51:17.759Z,37.42
2023-05-13T21:56:21.489Z,37.67
2023-05-13T22:01:25.869Z,36.17
2023-05-13T22:06:28.855Z,37.95
2023-05-13T22:11:31.797Z,37.00
2023-05-13T22:16:36.454Z,36.80
2023-05-13T22:21:39.425Z,37.13
2023-05-13T22:26:43.763Z,37.10
2023-05-13T22:31:48.200Z,37.15
2023-05-13T22:36:51.124Z,37.10
2023-05-13T22:41:54.668Z,36.95
2023-05-13T22:46:58.940Z,36.70
2023-05-13T22:52:01.856Z,36.80
2023-05-13T22:57:05.069Z,36.47
2023-05-13T23:02:09.657Z,36.70
2023-05-13T23:07:12.638Z,36.47
2023-05-13T23:12:15.820Z,36.67
2023-05-13T23:17:39.908Z,36.40
2023-05-13T23:22:42.799Z,36.47
2023-05-13T23:27:45.666Z,37.78
2023-05-13T23:32:50.011Z,36.70
2023-05-13T23:37:52.873Z,37.85
2023-05-13T23:42:55.836Z,37.42
2023-05-13T23:48:00.122Z,36.85
2023-05-13T23:53:03.039Z,36.40
2023-05-13T23:58:05.997Z,36.33
